Bennett, Colorado
Current Conditions -  °F | °C
As of 7:53 PM on Monday 22 Dec 2014 (Local Time) from KDEN Reporting Station
Broken Clouds Broken Clouds  
Wind Chill: 14°   Ceiling: 8000
Heat Index: 26°   Visibility: 10mi
Dew Point: 19°   Wind: 14mph
Humidity: 75%   Direction: 10°N
Pressure: 29.81"   Gusts: NA
Location:  39.76°N, 104.43°W
Report Text: KDEN 230253Z 01012KT 10SM SCT060 BKN080 M03/M07 A2981 RMK AO2 SLP114 T10331072 53022
Loading
Personal Weather Stations






























Interactive Weather Map New forecast layout! Learn more

10-Day Weather Forecast

Advertisements
Track Severe Weather on mobile